Time;durP1;ratioP1;P1;durP2;ratioP2;P2;SDS_P1;SDS_P2;PMS_P1;PMS_P2;Temp;Humidity;BMP_temperature;BMP_pressure;BME280_temperature;BME280_humidity;BME280_pressure;Samples;Min_cycle;Max_cycle;Signal;HPM_P1;HPM_P2
2023/04/26 00:01:38;;;;;;;;;;;;;;;7.68;54.60;100915.53;4104915;28;20020;-65
2023/04/26 00:03:41;;;;;;;;;;;;;;;7.69;54.20;100916.38;4104609;28;20046;-65
2023/04/26 00:05:43;;;;;;;;;;;;;;;7.65;54.66;100923.91;4088144;28;20025;-65
2023/04/26 00:07:45;;;;;;;;;;;;;;;7.63;54.86;100919.69;4105163;28;20026;-65
2023/04/26 00:09:47;;;;;;;;;;;;;;;7.64;54.85;100921.38;4087811;28;20377;-65
2023/04/26 00:11:50;;;;;;;;;;;;;;;7.63;54.78;100919.69;4104213;28;20017;-65
2023/04/26 00:13:52;;;;;;;;;;;;;;;7.61;54.97;100917.13;4103692;28;20017;-65
2023/04/26 00:15:54;;;;;;;;;;;;;;;7.62;54.89;100910.78;4105183;28;20020;-65
2023/04/26 00:17:56;;;;;;;;;;;;;;;7.61;55.15;100919.81;4103238;28;20038;-65
2023/04/26 00:20:00;;;;;;;;;;;;;;;7.55;55.28;100924.00;4103934;28;20038;-65
2023/04/26 00:22:02;;;;;;;;;;;;;;;7.50;55.39;100920.91;4104549;28;20025;-65
2023/04/26 00:24:05;;;;;;;;;;;;;;;7.48;55.60;100927.44;4104348;28;20013;-65
2023/04/26 00:26:07;;;;;;;;;;;;;;;7.37;55.47;100899.78;4103788;28;20005;-65
2023/04/26 00:28:09;;;;;;;;;;;;;;;7.46;55.46;100922.22;4104751;28;20020;-65
2023/04/26 00:30:12;;;;;;;;;;;;;;;7.46;55.79;100924.91;4104956;28;19927;-65
2023/04/26 00:32:14;;;;;;;;;;;;;;;7.43;55.59;100919.84;4087304;29;20022;-65
2023/04/26 00:34:16;;;;;;;;;;;;;;;7.40;55.68;100928.19;4104618;28;20033;-65
2023/04/26 00:36:19;;;;;;;;;;;;;;;7.37;55.68;100925.81;4087859;29;20048;-65
2023/04/26 00:38:21;;;;;;;;;;;;;;;7.33;55.90;100922.56;4105220;28;20025;-65
2023/04/26 00:40:23;;;;;;;;;;;;;;;7.31;55.78;100919.19;4103349;28;20017;-65
2023/04/26 00:42:27;;;;;;;;;;;;;;;7.31;56.11;100923.72;4086127;29;20021;-65
2023/04/26 00:44:29;;;;;;;;;;;;;;;7.25;56.23;100924.34;4105015;28;20030;-65
2023/04/26 00:46:31;;;;;;;;;;;;;;;7.19;56.42;100918.56;4104278;28;20013;-65
2023/04/26 00:48:33;;;;;;;;;;;;;;;7.16;56.55;100924.25;4104998;28;20017;-65
2023/04/26 00:50:35;;;;;;;;;;;;;;;7.16;56.41;100923.38;4104571;28;19926;-65
2023/04/26 00:52:38;;;;;;;;;;;;;;;7.11;56.95;100928.38;4104518;28;20016;-65
2023/04/26 00:54:40;;;;;;;;;;;;;;;7.12;56.53;100928.22;4104795;28;20029;-65
2023/04/26 00:56:43;;;;;;;;;;;;;;;7.08;56.78;100923.28;4103461;28;20456;-65
2023/04/26 00:58:45;;;;;;;;;;;;;;;7.05;56.93;100929.78;4102258;28;20017;-65
2023/04/26 01:00:49;;;;;;;;;;;;;;;7.02;57.00;100930.09;4102582;28;20648;-65
2023/04/26 01:02:51;;;;;;;;;;;;;;;7.00;57.27;100929.41;4086256;29;20039;-65
2023/04/26 01:04:53;;;;;;;;;;;;;;;6.99;57.29;100930.38;4087459;29;20017;-65
2023/04/26 01:06:55;;;;;;;;;;;;;;;6.98;57.16;100929.56;4103831;28;20371;-65
2023/04/26 01:08:59;;;;;;;;;;;;;;;6.99;57.20;100930.38;4071839;29;19981;-65
2023/04/26 01:11:01;;;;;;;;;;;;;;;7.02;57.34;100932.78;4087718;28;20390;-65
2023/04/26 01:13:03;;;;;;;;;;;;;;;7.04;57.48;100933.50;4102690;28;20037;-65
2023/04/26 01:15:06;;;;;;;;;;;;;;;7.07;57.47;100935.88;4102028;28;20049;-65
2023/04/26 01:17:08;;;;;;;;;;;;;;;7.08;57.13;100937.56;4103268;28;20018;-65
2023/04/26 01:19:11;;;;;;;;;;;;;;;7.04;57.39;100937.03;4087455;29;20028;-65
2023/04/26 01:21:15;;;;;;;;;;;;;;;7.00;57.60;100935.59;4104073;28;20014;-65
2023/04/26 01:23:19;;;;;;;;;;;;;;;6.96;57.71;100928.88;4103567;28;20013;-65
2023/04/26 01:25:21;;;;;;;;;;;;;;;6.92;57.59;100937.38;4105570;28;21673;-65
2023/04/26 01:27:24;;;;;;;;;;;;;;;6.87;57.91;100934.28;4107515;28;20461;-65
2023/04/26 01:29:26;;;;;;;;;;;;;;;6.87;57.74;100935.13;4107462;28;20033;-65
2023/04/26 01:31:28;;;;;;;;;;;;;;;6.87;57.81;100935.13;4074843;29;19930;-65
2023/04/26 01:33:30;;;;;;;;;;;;;;;6.88;58.13;100944.00;4107137;28;20022;-65
2023/04/26 01:35:33;;;;;;;;;;;;;;;6.85;57.71;100942.50;4104520;28;20017;-65
2023/04/26 01:37:35;;;;;;;;;;;;;;;6.81;57.91;100947.28;4106680;28;20028;-65
2023/04/26 01:39:38;;;;;;;;;;;;;;;6.77;58.27;100945.03;4107293;28;20637;-65
2023/04/26 01:41:40;;;;;;;;;;;;;;;6.71;58.25;100957.22;4107774;28;20029;-65
2023/04/26 01:43:42;;;;;;;;;;;;;;;6.70;58.63;100955.53;4106047;28;20022;-65
2023/04/26 01:45:46;;;;;;;;;;;;;;;6.67;58.60;100956.66;4106747;28;20026;-66
2023/04/26 01:48:07;;;;;;;;;;;;;;;6.62;58.74;100958.94;4090970;28;20017;-65
2023/04/26 01:50:10;;;;;;;;;;;;;;;6.62;58.83;100952.75;4106623;28;20448;-65
2023/04/26 01:52:12;;;;;;;;;;;;;;;6.64;58.90;100954.25;4107321;28;19926;-65
2023/04/26 01:54:14;;;;;;;;;;;;;;;6.62;59.19;100960.78;4107809;28;20041;-65
2023/04/26 01:56:17;;;;;;;;;;;;;;;6.58;59.17;100951.31;4089954;29;20021;-65
2023/04/26 01:58:19;;;;;;;;;;;;;;;6.56;59.31;100956.84;4089363;29;20077;-66
2023/04/26 02:00:23;;;;;;;;;;;;;;;6.56;59.44;100959.53;4089336;28;20034;-66
2023/04/26 02:02:25;;;;;;;;;;;;;;;6.53;59.49;100951.75;4106910;28;20022;-66
2023/04/26 02:04:27;;;;;;;;;;;;;;;6.52;59.56;100952.78;4106874;28;20040;-66
2023/04/26 02:06:30;;;;;;;;;;;;;;;6.52;59.73;100955.47;4073159;29;20022;-66
2023/04/26 02:08:32;;;;;;;;;;;;;;;6.49;59.94;100956.59;4106343;28;20017;-66
2023/04/26 02:10:35;;;;;;;;;;;;;;;6.49;59.97;100953.91;4074330;29;20022;-66
2023/04/26 02:12:38;;;;;;;;;;;;;;;6.48;60.20;100941.47;4088462;29;19931;-66
2023/04/26 02:14:40;;;;;;;;;;;;;;;6.48;60.05;100952.19;4089678;28;20033;-65
2023/04/26 02:16:45;;;;;;;;;;;;;;;6.48;60.33;100952.19;4106916;28;20469;-66
2023/04/26 02:18:49;;;;;;;;;;;;;;;6.48;60.21;100954.88;4088672;29;20077;-66
2023/04/26 02:20:52;;;;;;;;;;;;;;;6.46;60.04;100951.50;4089265;29;19998;-66
2023/04/26 02:22:54;;;;;;;;;;;;;;;6.46;60.24;100946.13;4104217;28;20460;-66
2023/04/26 02:24:56;;;;;;;;;;;;;;;6.44;60.35;100948.13;4106526;28;20389;-66
2023/04/26 02:27:04;;;;;;;;;;;;;;;6.40;60.30;100949.41;4106739;28;20017;-66
2023/04/26 02:29:07;;;;;;;;;;;;;;;6.41;60.36;100947.56;4107011;28;20369;-66
2023/04/26 02:31:09;;;;;;;;;;;;;;;6.40;60.40;100949.41;4105506;28;20038;-66
2023/04/26 02:33:12;;;;;;;;;;;;;;;6.38;60.52;100950.53;4104693;28;19978;-66
2023/04/26 02:35:14;;;;;;;;;;;;;;;6.34;60.83;100949.13;4089153;29;20033;-66
2023/04/26 02:37:17;;;;;;;;;;;;;;;6.32;60.95;100955.47;4088593;29;20014;-66
2023/04/26 02:39:19;;;;;;;;;;;;;;;6.32;60.71;100944.75;4106468;28;20018;-66
2023/04/26 02:41:22;;;;;;;;;;;;;;;6.30;60.98;100948.56;4089623;29;20013;-66
2023/04/26 02:43:25;;;;;;;;;;;;;;;6.24;61.18;100950.00;4105271;28;20354;-66
2023/04/26 02:45:28;;;;;;;;;;;;;;;6.21;61.38;100950.28;4056676;29;20052;-66
2023/04/26 02:47:31;;;;;;;;;;;;;;;6.22;61.38;100957.34;4105947;28;20017;-66
2023/04/26 02:49:33;;;;;;;;;;;;;;;6.21;61.18;100949.44;4106159;28;20009;-66
2023/04/26 02:51:35;;;;;;;;;;;;;;;6.21;61.27;100954.81;4089124;29;20022;-66
2023/04/26 02:53:37;;;;;;;;;;;;;;;6.19;61.55;100949.59;4088306;29;20398;-66
2023/04/26 02:55:39;;;;;;;;;;;;;;;6.21;61.51;100952.97;4088289;29;20388;-66
2023/04/26 02:57:41;;;;;;;;;;;;;;;6.21;61.72;100952.97;4088612;29;20380;-66
2023/04/26 02:59:44;;;;;;;;;;;;;;;6.20;61.38;100953.94;4087738;29;20890;-66
2023/04/26 03:01:47;;;;;;;;;;;;;;;6.22;61.29;100948.44;4072677;29;20033;-66
2023/04/26 03:03:50;;;;;;;;;;;;;;;6.20;61.19;100953.94;4105697;28;20016;-66
2023/04/26 03:05:52;;;;;;;;;;;;;;;6.21;61.42;100954.81;4104892;28;20001;-66
2023/04/26 03:07:54;;;;;;;;;;;;;;;6.20;61.36;100947.75;4072726;29;20021;-66
2023/04/26 03:09:56;;;;;;;;;;;;;;;6.15;61.43;100955.38;4074065;29;20678;-66
2023/04/26 03:11:58;;;;;;;;;;;;;;;6.10;61.57;100953.97;4088658;29;20021;-66
2023/04/26 03:14:01;;;;;;;;;;;;;;;6.05;61.86;100953.56;4105374;28;20385;-66
2023/04/26 03:16:05;;;;;;;;;;;;;;;6.03;62.00;100962.72;4088187;29;20477;-66
2023/04/26 03:18:08;;;;;;;;;;;;;;;6.00;62.00;100966.53;4064800;29;20026;-66
2023/04/26 03:20:11;;;;;;;;;;;;;;;5.99;62.23;100962.16;4087986;28;20021;-66
2023/04/26 03:22:15;;;;;;;;;;;;;;;5.98;62.32;100963.16;4105998;28;20453;-66
2023/04/26 03:24:17;;;;;;;;;;;;;;;5.99;62.19;100954.13;4088667;29;20029;-66
2023/04/26 03:26:21;;;;;;;;;;;;;;;5.95;62.29;100953.50;4104152;28;20028;-66
2023/04/26 03:28:23;;;;;;;;;;;;;;;5.94;62.51;100962.56;4103664;28;20918;-67
2023/04/26 03:30:26;;;;;;;;;;;;;;;5.91;62.50;100965.53;4104638;28;20017;-67
2023/04/26 03:32:28;;;;;;;;;;;;;;;5.91;62.56;100959.31;4103407;28;20625;-67
2023/04/26 03:34:31;;;;;;;;;;;;;;;5.88;62.75;100964.97;4105038;28;20014;-67
2023/04/26 03:36:34;;;;;;;;;;;;;;;5.86;62.85;100965.09;4073007;29;20468;-67
2023/04/26 03:38:37;;;;;;;;;;;;;;;5.86;62.70;100969.59;4088364;29;20025;-67
2023/04/26 03:40:39;;;;;;;;;;;;;;;5.83;62.59;100968.06;4088330;28;20017;-67
2023/04/26 03:42:41;;;;;;;;;;;;;;;5.77;63.22;100974.81;4104972;28;20021;-66
2023/04/26 03:44:43;;;;;;;;;;;;;;;5.75;63.40;100971.44;4072177;29;20030;-67
2023/04/26 03:46:45;;;;;;;;;;;;;;;5.72;63.56;100970.84;4087386;29;20116;-67
2023/04/26 03:48:47;;;;;;;;;;;;;;;5.72;63.88;100973.53;4087294;28;20021;-67
2023/04/26 03:50:50;;;;;;;;;;;;;;;5.70;63.76;100972.84;4088085;28;20070;-67
2023/04/26 03:52:54;;;;;;;;;;;;;;;5.68;63.99;100975.66;4089096;29;20481;-67
2023/04/26 03:54:56;;;;;;;;;;;;;;;5.66;63.89;100974.97;4089505;29;20017;-67
2023/04/26 03:56:58;;;;;;;;;;;;;;;5.64;63.96;100973.41;4088894;29;20346;-67
2023/04/26 03:59:00;;;;;;;;;;;;;;;5.59;63.91;100971.13;4088292;29;20021;-67
2023/04/26 04:01:03;;;;;;;;;;;;;;;5.58;64.18;100981.00;4088123;28;20370;-67
2023/04/26 04:03:06;;;;;;;;;;;;;;;5.56;64.13;100982.13;4087033;29;20309;-67
2023/04/26 04:05:09;;;;;;;;;;;;;;;5.58;64.20;100988.22;4086197;29;19970;-67
2023/04/26 04:07:13;;;;;;;;;;;;;;;5.59;63.96;100987.22;4073578;29;20018;-67
2023/04/26 04:09:16;;;;;;;;;;;;;;;5.58;64.19;100985.53;4073099;29;20117;-67
2023/04/26 04:11:19;;;;;;;;;;;;;;;5.53;64.30;100985.94;4103748;28;20374;-67
2023/04/26 04:13:21;;;;;;;;;;;;;;;5.50;64.36;100980.00;4102791;28;20021;-67
2023/04/26 04:15:23;;;;;;;;;;;;;;;5.50;64.53;100980.00;4087411;28;19927;-67
2023/04/26 04:17:26;;;;;;;;;;;;;;;5.50;64.53;100991.59;4100035;28;20034;-67
2023/04/26 04:19:28;;;;;;;;;;;;;;;5.49;64.50;100986.34;4086637;28;20514;-67
2023/04/26 04:21:31;;;;;;;;;;;;;;;5.48;64.53;100992.69;4088072;29;20021;-67
2023/04/26 04:23:35;;;;;;;;;;;;;;;5.47;64.57;100999.03;4088929;28;20009;-67
2023/04/26 04:25:42;;;;;;;;;;;;;;;5.46;64.68;100990.16;4073147;29;20394;-67
2023/04/26 04:27:49;;;;;;;;;;;;;;;5.46;64.88;100987.47;4088214;28;20022;-67
2023/04/26 04:29:52;;;;;;;;;;;;;;;5.45;64.85;100988.44;4086604;29;20057;-67
2023/04/26 04:31:54;;;;;;;;;;;;;;;5.47;64.89;100990.97;4088881;29;20073;-67
2023/04/26 04:33:56;;;;;;;;;;;;;;;5.46;64.97;100994.66;4086897;29;20034;-67
2023/04/26 04:35:59;;;;;;;;;;;;;;;5.51;64.78;100998.59;4088479;29;19975;-67
2023/04/26 04:38:01;;;;;;;;;;;;;;;5.55;64.38;100996.53;4088057;29;20006;-67
2023/04/26 04:40:10;;;;;;;;;;;;;;;5.55;64.53;101002.72;4089007;29;20018;-67
2023/04/26 04:42:13;;;;;;;;;;;;;;;5.53;64.58;100998.47;4087275;29;20021;-66
2023/04/26 04:44:15;;;;;;;;;;;;;;;5.54;64.84;101001.00;4088336;28;20076;-67
2023/04/26 04:46:18;;;;;;;;;;;;;;;5.52;64.83;101000.31;4100403;28;20025;-67
2023/04/26 04:48:20;;;;;;;;;;;;;;;5.53;64.77;101010.06;4085964;29;20033;-67
2023/04/26 04:50:23;;;;;;;;;;;;;;;5.51;64.79;101006.66;4071247;29;20014;-67
2023/04/26 04:52:25;;;;;;;;;;;;;;;5.51;64.79;101003.13;4071012;29;20386;-67
2023/04/26 04:54:27;;;;;;;;;;;;;;;5.51;64.81;101009.31;4087881;29;20303;-67
2023/04/26 04:56:31;;;;;;;;;;;;;;;5.54;64.85;101018.94;4072267;29;19969;-67
2023/04/26 04:58:33;;;;;;;;;;;;;;;5.56;64.71;101019.63;4086033;29;20029;-67
2023/04/26 05:00:36;;;;;;;;;;;;;;;5.56;65.09;101025.84;4088186;28;20029;-67
2023/04/26 05:02:56;;;;;;;;;;;;;;;5.58;64.80;101017.69;4089246;29;20021;-66
2023/04/26 05:04:58;;;;;;;;;;;;;;;5.62;64.84;101019.09;4072608;29;20021;-67
2023/04/26 05:07:00;;;;;;;;;;;;;;;5.65;64.51;101029.53;4076147;29;20037;-67
2023/04/26 05:09:04;;;;;;;;;;;;;;;5.64;64.39;101014.44;4076550;29;20026;-67
2023/04/26 05:11:10;;;;;;;;;;;;;;;5.65;64.46;101028.69;4058739;29;20375;-67
2023/04/26 05:13:13;;;;;;;;;;;;;;;5.63;65.08;101026.16;4071428;29;20477;-66
2023/04/26 05:15:15;;;;;;;;;;;;;;;5.66;64.75;101020.50;4057795;29;20029;-67
2023/04/26 05:17:20;;;;;;;;;;;;;;;5.67;64.79;101024.88;4059975;29;20521;-67
2023/04/26 05:19:22;;;;;;;;;;;;;;;5.67;64.52;101027.56;4073533;29;19962;-67
2023/04/26 05:21:24;;;;;;;;;;;;;;;5.65;64.81;101031.38;4090409;29;20049;-67
2023/04/26 05:23:26;;;;;;;;;;;;;;;5.65;65.00;101039.41;4091353;29;20417;-67
2023/04/26 05:25:29;;;;;;;;;;;;;;;5.67;64.88;101034.75;4074804;29;20019;-67
2023/04/26 05:27:38;;;;;;;;;;;;;;;5.69;64.96;101043.50;4074431;29;20019;-66
2023/04/26 05:29:52;;;;;;;;;;;;;;;5.72;64.81;101040.53;4075235;29;20029;-67
2023/04/26 05:32:14;;;;;;;;;;;;;;;5.75;64.54;101042.94;4088736;29;20101;-67
2023/04/26 05:34:16;;;;;;;;;;;;;;;5.77;64.31;101041.00;4091127;29;20025;-67
2023/04/26 05:36:23;;;;;;;;;;;;;;;5.76;64.45;101048.16;4075146;29;20021;-67
2023/04/26 05:38:25;;;;;;;;;;;;;;;5.79;64.55;101047.06;4089469;29;20029;-67
2023/04/26 05:40:28;;;;;;;;;;;;;;;5.79;64.54;101049.72;4089316;29;20859;-67
2023/04/26 05:42:30;;;;;;;;;;;;;;;5.81;64.67;101045.06;4073041;29;20446;-67
2023/04/26 05:44:32;;;;;;;;;;;;;;;5.82;64.58;101048.63;4072071;29;20042;-67
2023/04/26 05:46:35;;;;;;;;;;;;;;;5.84;64.56;101050.16;4073115;29;20034;-67
2023/04/26 05:48:38;;;;;;;;;;;;;;;5.87;64.54;101057.09;4089641;29;20026;-67
2023/04/26 05:50:41;;;;;;;;;;;;;;;5.88;64.64;101056.09;4080368;28;20022;-67
2023/04/26 05:52:44;;;;;;;;;;;;;;;5.89;64.77;101057.78;4087754;29;20398;-67
2023/04/26 05:54:46;;;;;;;;;;;;;;;5.89;64.73;101055.97;4077565;29;20048;-67
2023/04/26 05:56:48;;;;;;;;;;;;;;;5.93;64.70;101056.53;4084970;28;19933;-67
2023/04/26 05:58:50;;;;;;;;;;;;;;;5.93;64.55;101061.91;4084673;29;20025;-67
2023/04/26 06:00:52;;;;;;;;;;;;;;;5.95;64.49;101063.44;4089236;28;20039;-67
2023/04/26 06:02:56;;;;;;;;;;;;;;;5.99;64.49;101063.19;4089705;28;20005;-68
2023/04/26 06:04:58;;;;;;;;;;;;;;;6.02;64.23;101063.78;4089447;29;20052;-66
2023/04/26 06:07:01;;;;;;;;;;;;;;;6.05;63.84;101058.13;4081385;29;20025;-68
2023/04/26 06:09:04;;;;;;;;;;;;;;;6.09;63.82;101064.91;4090181;28;20013;-66
2023/04/26 06:11:07;;;;;;;;;;;;;;;6.10;63.64;101065.75;4088779;28;20484;-66
2023/04/26 06:13:09;;;;;;;;;;;;;;;6.13;63.59;101060.94;4087587;29;20022;-66
2023/04/26 06:15:12;;;;;;;;;;;;;;;6.15;63.32;101062.66;4089193;29;20010;-67
2023/04/26 06:17:15;;;;;;;;;;;;;;;6.17;63.27;101066.88;4074611;29;20014;-67
2023/04/26 06:19:19;;;;;;;;;;;;;;;6.20;63.31;101053.19;4088462;28;19934;-67
2023/04/26 06:21:23;;;;;;;;;;;;;;;6.27;63.20;101066.88;4103225;28;20025;-67
2023/04/26 06:23:26;;;;;;;;;;;;;;;6.28;63.22;101071.25;4103014;28;20030;-67
2023/04/26 06:25:28;;;;;;;;;;;;;;;6.29;62.76;101065.75;4089239;29;20025;-66
2023/04/26 06:27:32;;;;;;;;;;;;;;;6.30;62.84;101070.13;4086998;29;20030;-66
2023/04/26 06:29:34;;;;;;;;;;;;;;;6.30;63.10;101069.28;4102485;28;20022;-66
2023/04/26 06:31:36;;;;;;;;;;;;;;;6.33;62.91;101074.34;4088377;29;20013;-66
2023/04/26 06:33:38;;;;;;;;;;;;;;;6.36;62.82;101071.38;4089515;29;20375;-67
2023/04/26 06:35:42;;;;;;;;;;;;;;;6.40;62.35;101072.81;4089593;29;20036;-66
2023/04/26 06:37:45;;;;;;;;;;;;;;;6.42;62.55;101070.81;4087340;29;20037;-66
2023/04/26 06:39:49;;;;;;;;;;;;;;;6.46;62.46;101063.38;4072880;29;20558;-67
2023/04/26 06:41:51;;;;;;;;;;;;;;;6.48;62.40;101066.75;4103684;28;20392;-66
2023/04/26 06:44:02;;;;;;;;;;;;;;;6.53;62.15;101074.38;4102864;28;20028;-66
2023/04/26 06:46:06;;;;;;;;;;;;;;;6.58;61.81;101081.00;4103614;28;20025;-66
2023/04/26 06:48:08;;;;;;;;;;;;;;;6.54;61.74;101055.44;4089644;29;20009;-66
2023/04/26 06:50:11;;;;;;;;;;;;;;;6.61;61.80;101072.66;4072299;29;20030;-66
2023/04/26 06:52:14;;;;;;;;;;;;;;;6.63;61.52;101070.69;4088343;29;20322;-66
2023/04/26 06:54:17;;;;;;;;;;;;;;;6.65;61.53;101070.53;4056695;29;20425;-67
2023/04/26 06:56:18;;;;;;;;;;;;;;;6.66;61.77;101064.16;4089037;28;20021;-67
2023/04/26 06:58:21;;;;;;;;;;;;;;;6.68;61.71;101073.78;4089773;29;20014;-66
2023/04/26 07:00:24;;;;;;;;;;;;;;;6.72;61.86;101068.97;4072245;29;20440;-67
2023/04/26 07:02:26;;;;;;;;;;;;;;;6.75;61.30;101071.34;4088965;29;20458;-66
2023/04/26 07:04:28;;;;;;;;;;;;;;;6.76;61.38;101083.81;4089167;29;20378;-67
2023/04/26 07:06:31;;;;;;;;;;;;;;;6.79;61.22;101072.78;4088379;29;20030;-67
2023/04/26 07:08:34;;;;;;;;;;;;;;;6.81;61.14;101073.47;4088027;29;20018;-66
2023/04/26 07:10:36;;;;;;;;;;;;;;;6.83;60.86;101084.06;4089377;29;20029;-67
2023/04/26 07:12:38;;;;;;;;;;;;;;;6.85;60.73;101087.47;4088944;29;20371;-67
2023/04/26 07:14:42;;;;;;;;;;;;;;;6.88;61.20;101089.88;4088914;29;20044;-67
2023/04/26 07:16:43;;;;;;;;;;;;;;;6.92;60.68;101090.41;4088246;29;20022;-67
2023/04/26 07:18:48;;;;;;;;;;;;;;;6.93;60.61;101081.34;4088598;29;20017;-68
2023/04/26 07:20:54;;;;;;;;;;;;;;;6.96;60.46;101086.44;4088274;28;20021;-68
2023/04/26 07:22:56;;;;;;;;;;;;;;;6.97;60.35;101088.13;4088245;29;20778;-68
2023/04/26 07:24:59;;;;;;;;;;;;;;;7.01;60.30;101093.06;4088351;29;20049;-67
2023/04/26 07:27:02;;;;;;;;;;;;;;;7.03;60.22;101090.25;4088020;29;20368;-67
2023/04/26 07:29:04;;;;;;;;;;;;;;;7.04;60.10;101095.47;4088075;29;20021;-66
2023/04/26 07:31:06;;;;;;;;;;;;;;;7.07;59.89;101090.78;4087518;29;20009;-67
2023/04/26 07:33:08;;;;;;;;;;;;;;;7.07;59.75;101083.59;4088241;29;20033;-66
2023/04/26 07:35:14;;;;;;;;;;;;;;;7.09;59.40;101092.34;4088631;29;20033;-68
2023/04/26 07:37:16;;;;;;;;;;;;;;;7.11;59.74;101086.84;4088193;29;20337;-66
2023/04/26 07:39:18;;;;;;;;;;;;;;;7.12;59.53;101089.38;4087769;29;20464;-68
2023/04/26 07:41:22;;;;;;;;;;;;;;;7.16;59.29;101081.88;4087647;28;19977;-68
2023/04/26 07:43:25;;;;;;;;;;;;;;;7.19;59.39;101087.81;4086553;29;20480;-69
2023/04/26 07:45:27;;;;;;;;;;;;;;;7.21;59.13;101087.66;4088047;29;20088;-68
2023/04/26 07:47:29;;;;;;;;;;;;;;;7.21;58.97;101095.72;4087985;29;20124;-68
2023/04/26 07:49:31;;;;;;;;;;;;;;;7.24;59.09;101092.75;4088960;29;20021;-68
2023/04/26 07:51:35;;;;;;;;;;;;;;;7.24;58.75;101095.44;4102470;28;20017;-67
2023/04/26 07:53:37;;;;;;;;;;;;;;;7.27;58.54;101111.22;4103461;28;20036;-68
2023/04/26 07:55:39;;;;;;;;;;;;;;;7.30;57.95;101094.81;4103556;28;20013;-68
2023/04/26 07:57:42;;;;;;;;;;;;;;;7.32;57.78;101095.53;4104121;28;20033;-68
2023/04/26 07:59:45;;;;;;;;;;;;;;;7.33;57.85;101099.06;4103284;28;20669;-65
2023/04/26 08:01:47;;;;;;;;;;;;;;;7.37;57.34;101103.16;4102792;28;20029;-68
2023/04/26 08:04:15;;;;;;;;;;;;;;;7.38;57.46;101096.78;4104004;28;20050;-68
2023/04/26 08:06:16;;;;;;;;;;;;;;;7.38;57.70;101094.94;4085704;29;19964;-68
2023/04/26 08:08:18;;;;;;;;;;;;;;;7.43;57.42;101096.34;4103563;28;20010;-68
2023/04/26 08:10:20;;;;;;;;;;;;;;;7.43;57.54;101101.72;4086570;28;20057;-66
2023/04/26 08:12:22;;;;;;;;;;;;;;;7.43;57.40;101102.56;4102701;28;20017;-69
2023/04/26 08:14:26;;;;;;;;;;;;;;;7.45;57.07;101110.50;4102748;28;20020;-68
2023/04/26 08:16:28;;;;;;;;;;;;;;;7.47;57.11;101103.94;4103004;28;20013;-69
2023/04/26 08:18:30;;;;;;;;;;;;;;;7.46;56.57;101104.97;4098266;28;20025;-70
2023/04/26 08:20:32;;;;;;;;;;;;;;;7.50;56.73;101113.56;4100975;28;20017;-69
2023/04/26 08:22:34;;;;;;;;;;;;;;;7.50;56.97;101114.41;4101818;28;19926;-65
2023/04/26 08:24:36;;;;;;;;;;;;;;;7.52;56.93;101112.44;4070476;29;19990;-67
2023/04/26 08:26:38;;;;;;;;;;;;;;;7.55;56.60;101117.53;4100198;28;20041;-67
2023/04/26 08:28:40;;;;;;;;;;;;;;;7.56;56.42;101108.44;4097213;28;20054;-67
2023/04/26 08:30:46;;;;;;;;;;;;;;;7.59;56.29;101107.31;4101165;28;20033;-67
2023/04/26 08:32:48;;;;;;;;;;;;;;;7.58;56.64;101105.59;4100765;28;20029;-67
2023/04/26 08:34:50;;;;;;;;;;;;;;;7.61;56.41;101115.22;4101616;28;20024;-68
2023/04/26 08:36:53;;;;;;;;;;;;;;;7.58;56.54;101102.91;4101719;28;20017;-65
2023/04/26 08:38:56;;;;;;;;;;;;;;;7.59;57.06;101115.38;4082197;29;20461;-68
2023/04/26 08:41:00;;;;;;;;;;;;;;;7.59;57.66;101118.06;4101461;28;20040;-67
2023/04/26 08:43:02;;;;;;;;;;;;;;;7.60;57.57;101129.66;4101900;28;20393;-67
2023/04/26 08:45:05;;;;;;;;;;;;;;;7.57;57.72;101128.13;4102006;28;20017;-67
2023/04/26 08:47:10;;;;;;;;;;;;;;;7.61;57.61;101123.28;4103034;28;20017;-66
2023/04/26 08:49:14;;;;;;;;;;;;;;;7.61;57.44;101126.81;4103271;28;20020;-67
2023/04/26 08:51:16;;;;;;;;;;;;;;;7.54;58.54;101123.03;4101780;28;20017;-67
2023/04/26 08:53:18;;;;;;;;;;;;;;;7.50;59.93;101121.63;4101939;28;20018;-66
2023/04/26 08:55:20;;;;;;;;;;;;;;;7.52;59.42;101125.00;4102019;28;20021;-66
2023/04/26 08:57:22;;;;;;;;;;;;;;;7.54;59.16;101123.88;4100314;28;20041;-66
2023/04/26 08:59:24;;;;;;;;;;;;;;;7.60;58.65;101114.34;4068800;29;20619;-66
2023/04/26 09:01:26;;;;;;;;;;;;;;;7.63;58.32;101132.03;4101430;28;20626;-66
2023/04/26 09:03:30;;;;;;;;;;;;;;;7.65;58.00;101122.84;4100866;28;20022;-67
2023/04/26 09:05:32;;;;;;;;;;;;;;;7.66;57.80;101129.06;4102366;28;20021;-66
2023/04/26 09:07:35;;;;;;;;;;;;;;;7.71;57.46;101121.38;4102995;28;20036;-66
2023/04/26 09:09:41;;;;;;;;;;;;;;;7.72;56.79;101125.78;4100682;28;20432;-66
2023/04/26 09:11:53;;;;;;;;;;;;;;;7.74;56.93;101119.25;4097880;28;20099;-67
2023/04/26 09:13:56;;;;;;;;;;;;;;;7.76;56.25;101116.44;4102663;28;20017;-65
2023/04/26 09:15:58;;;;;;;;;;;;;;;7.76;56.06;101119.97;4102973;28;20025;-66
2023/04/26 09:18:14;;;;;;;;;;;;;;;7.79;56.14;101117.94;4102071;28;20012;-66
2023/04/26 09:20:22;;;;;;;;;;;;;;;7.83;56.25;101112.13;4099567;28;20021;-65
2023/04/26 09:22:28;;;;;;;;;;;;;;;7.89;55.82;101111.53;4101038;28;20021;-65
2023/04/26 09:24:33;;;;;;;;;;;;;;;7.91;55.96;101112.22;4100757;28;20872;-66
2023/04/26 09:26:35;;;;;;;;;;;;;;;7.93;55.83;101104.88;4101718;28;20009;-66
2023/04/26 09:28:37;;;;;;;;;;;;;;;7.97;55.64;101118.00;4100256;28;20020;-66
2023/04/26 09:30:40;;;;;;;;;;;;;;;8.01;54.91;101114.00;4101971;28;20021;-66
2023/04/26 09:32:49;;;;;;;;;;;;;;;8.03;54.57;101109.34;4099729;28;20041;-66
2023/04/26 09:34:51;;;;;;;;;;;;;;;8.05;54.74;101110.03;4102400;28;20030;-66
2023/04/26 09:36:56;;;;;;;;;;;;;;;8.06;54.96;101115.25;4103327;28;20025;-66
2023/04/26 09:38:58;;;;;;;;;;;;;;;8.06;54.63;101111.72;4103174;28;20059;-66
2023/04/26 09:41:01;;;;;;;;;;;;;;;8.08;55.10;101113.25;4103579;28;20016;-66
2023/04/26 09:43:03;;;;;;;;;;;;;;;8.08;55.10;101117.78;4099564;28;20025;-66
2023/04/26 09:45:05;;;;;;;;;;;;;;;8.09;55.16;101122.19;4102799;28;20025;-66
2023/04/26 09:47:09;;;;;;;;;;;;;;;8.12;55.09;101121.88;4104065;28;20299;-66
2023/04/26 09:49:12;;;;;;;;;;;;;;;8.11;54.34;101118.31;4090756;28;20053;-66
2023/04/26 09:51:14;;;;;;;;;;;;;;;8.12;54.69;101121.88;4105652;28;20020;-66
2023/04/26 09:53:49;;;;;;;;;;;;;;;8.10;54.58;101113.97;4105947;28;20021;-66
2023/04/26 09:55:51;;;;;;;;;;;;;;;8.12;54.48;101122.72;4104313;28;20033;-66
2023/04/26 09:57:54;;;;;;;;;;;;;;;8.16;54.93;101114.34;4104417;28;20021;-66
2023/04/26 09:59:56;;;;;;;;;;;;;;;8.17;54.46;101124.97;4087737;28;20018;-66
2023/04/26 10:01:58;;;;;;;;;;;;;;;8.18;54.39;101125.78;4103568;28;20030;-66
2023/04/26 10:04:01;;;;;;;;;;;;;;;8.17;54.47;101119.56;4105853;28;20399;-66
2023/04/26 10:06:04;;;;;;;;;;;;;;;8.14;54.23;101117.19;4104553;28;19940;-66
2023/04/26 10:08:07;;;;;;;;;;;;;;;8.14;54.23;101122.56;4102512;28;20032;-66
2023/04/26 10:10:10;;;;;;;;;;;;;;;8.14;54.51;101122.56;4105305;28;20016;-66
2023/04/26 10:12:13;;;;;;;;;;;;;;;8.16;54.41;101120.56;4104099;28;19954;-66
2023/04/26 10:14:15;;;;;;;;;;;;;;;8.19;54.51;101122.94;4104395;28;20045;-66
2023/04/26 10:16:17;;;;;;;;;;;;;;;8.18;54.02;101121.28;4104332;28;20025;-66
2023/04/26 10:18:19;;;;;;;;;;;;;;;8.21;54.07;101129.06;4104286;28;20013;-66
2023/04/26 10:20:21;;;;;;;;;;;;;;;8.24;54.51;101112.56;4103610;28;20033;-66
2023/04/26 10:22:24;;;;;;;;;;;;;;;8.27;54.08;101127.56;4104842;28;20037;-66
2023/04/26 10:24:26;;;;;;;;;;;;;;;8.28;53.56;101140.88;4088266;29;20025;-66
2023/04/26 10:26:48;;;;;;;;;;;;;;;8.28;53.90;101119.34;4103102;28;19980;-66
2023/04/26 10:28:54;;;;;;;;;;;;;;;8.28;53.52;101113.97;4106615;28;20028;-66
2023/04/26 10:30:56;;;;;;;;;;;;;;;8.29;53.58;101122.88;4102177;28;20021;-66
2023/04/26 10:33:16;;;;;;;;;;;;;;;8.29;52.87;101118.38;4098424;28;20017;-66
2023/04/26 10:35:20;;;;;;;;;;;;;;;8.29;53.81;101121.06;4104978;28;20012;-66
2023/04/26 10:37:22;;;;;;;;;;;;;;;8.32;53.93;101121.75;4103501;28;20559;-66
2023/04/26 10:39:27;;;;;;;;;;;;;;;8.35;53.88;101124.13;4103682;28;20017;-67
2023/04/26 10:41:32;;;;;;;;;;;;;;;8.38;53.73;101119.28;4104522;28;20029;-66
2023/04/26 10:43:41;;;;;;;;;;;;;;;8.43;53.75;101116.13;4102545;28;20477;-66